sensor_id;sensor_type;location;lat;lon;timestamp;P1;durP1;ratioP1;P2;durP2;ratioP2
80983;SDS011;73733;53.046;8.724;2024-03-23T00:55:54;4.75;;;1.60;;
80983;SDS011;73733;53.046;8.724;2024-03-23T00:58:19;4.60;;;1.77;;
80983;SDS011;73733;53.046;8.724;2024-03-23T01:00:45;4.30;;;1.30;;
80983;SDS011;73733;53.046;8.724;2024-03-23T01:03:10;5.27;;;1.27;;
80983;SDS011;73733;53.046;8.724;2024-03-23T01:05:35;3.13;;;1.50;;
80983;SDS011;73733;53.046;8.724;2024-03-23T01:08:01;3.80;;;1.40;;
80983;SDS011;73733;53.046;8.724;2024-03-23T01:10:27;4.38;;;1.38;;
80983;SDS011;73733;53.046;8.724;2024-03-23T01:12:52;7.30;;;1.30;;
80983;SDS011;73733;53.046;8.724;2024-03-23T01:15:17;3.67;;;1.20;;
80983;SDS011;73733;53.046;8.724;2024-03-23T01:17:42;4.23;;;1.50;;
80983;SDS011;73733;53.046;8.724;2024-03-23T01:20:08;4.80;;;1.07;;
80983;SDS011;73733;53.046;8.724;2024-03-23T01:22:33;6.95;;;3.47;;
80983;SDS011;73733;53.046;8.724;2024-03-23T01:24:59;5.77;;;1.83;;
80983;SDS011;73733;53.046;8.724;2024-03-23T01:27:24;5.28;;;1.67;;
80983;SDS011;73733;53.046;8.724;2024-03-23T01:29:50;7.60;;;1.25;;
80983;SDS011;73733;53.046;8.724;2024-03-23T01:32:17;4.32;;;1.35;;
80983;SDS011;73733;53.046;8.724;2024-03-23T01:34:43;7.10;;;1.55;;
80983;SDS011;73733;53.046;8.724;2024-03-23T01:37:08;7.07;;;1.37;;
80983;SDS011;73733;53.046;8.724;2024-03-23T01:39:34;4.23;;;1.23;;
80983;SDS011;73733;53.046;8.724;2024-03-23T01:41:59;4.90;;;1.13;;
80983;SDS011;73733;53.046;8.724;2024-03-23T01:44:24;4.37;;;1.27;;
80983;SDS011;73733;53.046;8.724;2024-03-23T01:46:49;7.13;;;1.57;;
80983;SDS011;73733;53.046;8.724;2024-03-23T01:49:15;9.33;;;2.13;;
80983;SDS011;73733;53.046;8.724;2024-03-23T01:51:40;6.47;;;1.50;;
80983;SDS011;73733;53.046;8.724;2024-03-23T01:54:06;8.15;;;1.73;;
80983;SDS011;73733;53.046;8.724;2024-03-23T01:56:32;3.50;;;1.60;;
80983;SDS011;73733;53.046;8.724;2024-03-23T01:59:00;9.38;;;2.25;;
80983;SDS011;73733;53.046;8.724;2024-03-23T02:01:28;5.57;;;1.45;;
80983;SDS011;73733;53.046;8.724;2024-03-23T02:03:54;9.38;;;2.28;;
80983;SDS011;73733;53.046;8.724;2024-03-23T02:06:19;7.17;;;1.37;;
80983;SDS011;73733;53.046;8.724;2024-03-23T02:08:44;5.50;;;1.70;;
80983;SDS011;73733;53.046;8.724;2024-03-23T02:11:10;4.63;;;1.23;;
80983;SDS011;73733;53.046;8.724;2024-03-23T02:13:35;5.60;;;1.30;;
80983;SDS011;73733;53.046;8.724;2024-03-23T02:16:01;6.83;;;1.50;;
80983;SDS011;73733;53.046;8.724;2024-03-23T02:18:26;7.13;;;1.65;;
80983;SDS011;73733;53.046;8.724;2024-03-23T02:20:51;4.10;;;1.33;;
80983;SDS011;73733;53.046;8.724;2024-03-23T02:23:17;3.53;;;1.10;;
80983;SDS011;73733;53.046;8.724;2024-03-23T02:25:45;7.30;;;1.60;;
80983;SDS011;73733;53.046;8.724;2024-03-23T02:28:10;4.93;;;1.30;;
80983;SDS011;73733;53.046;8.724;2024-03-23T02:30:36;4.47;;;1.63;;
80983;SDS011;73733;53.046;8.724;2024-03-23T02:33:01;5.70;;;1.50;;
80983;SDS011;73733;53.046;8.724;2024-03-23T02:35:27;7.03;;;1.87;;
80983;SDS011;73733;53.046;8.724;2024-03-23T02:37:52;4.53;;;1.33;;
80983;SDS011;73733;53.046;8.724;2024-03-23T02:40:20;6.88;;;1.40;;
80983;SDS011;73733;53.046;8.724;2024-03-23T02:45:32;4.00;;;1.02;;
80983;SDS011;73733;53.046;8.724;2024-03-23T02:47:57;5.30;;;1.53;;
80983;SDS011;73733;53.046;8.724;2024-03-23T02:50:23;5.20;;;1.70;;
80983;SDS011;73733;53.046;8.724;2024-03-23T02:52:48;6.07;;;1.55;;
80983;SDS011;73733;53.046;8.724;2024-03-23T02:55:14;3.10;;;0.90;;
80983;SDS011;73733;53.046;8.724;2024-03-23T02:57:39;6.25;;;1.67;;
80983;SDS011;73733;53.046;8.724;2024-03-23T03:00:05;3.42;;;0.93;;
80983;SDS011;73733;53.046;8.724;2024-03-23T03:02:32;5.80;;;1.75;;
80983;SDS011;73733;53.046;8.724;2024-03-23T03:04:57;5.67;;;2.20;;
80983;SDS011;73733;53.046;8.724;2024-03-23T03:07:22;7.57;;;1.95;;
80983;SDS011;73733;53.046;8.724;2024-03-23T03:09:48;4.47;;;1.73;;
80983;SDS011;73733;53.046;8.724;2024-03-23T03:12:13;6.33;;;1.40;;
80983;SDS011;73733;53.046;8.724;2024-03-23T03:14:38;5.60;;;1.00;;
80983;SDS011;73733;53.046;8.724;2024-03-23T03:17:04;4.00;;;1.33;;
80983;SDS011;73733;53.046;8.724;2024-03-23T03:19:29;4.77;;;1.50;;
80983;SDS011;73733;53.046;8.724;2024-03-23T03:21:55;6.20;;;1.60;;
80983;SDS011;73733;53.046;8.724;2024-03-23T03:24:20;4.30;;;1.37;;
80983;SDS011;73733;53.046;8.724;2024-03-23T03:26:46;4.75;;;1.65;;
80983;SDS011;73733;53.046;8.724;2024-03-23T03:29:11;6.63;;;1.55;;
80983;SDS011;73733;53.046;8.724;2024-03-23T03:31:37;5.77;;;1.70;;
80983;SDS011;73733;53.046;8.724;2024-03-23T03:34:02;3.72;;;1.40;;
80983;SDS011;73733;53.046;8.724;2024-03-23T03:36:28;4.60;;;1.53;;
80983;SDS011;73733;53.046;8.724;2024-03-23T03:38:53;1.87;;;0.80;;
80983;SDS011;73733;53.046;8.724;2024-03-23T03:41:18;7.97;;;2.23;;
80983;SDS011;73733;53.046;8.724;2024-03-23T03:43:44;6.20;;;1.30;;
80983;SDS011;73733;53.046;8.724;2024-03-23T03:46:09;5.73;;;1.60;;
80983;SDS011;73733;53.046;8.724;2024-03-23T03:48:35;5.35;;;1.60;;
80983;SDS011;73733;53.046;8.724;2024-03-23T03:51:01;3.37;;;1.40;;
80983;SDS011;73733;53.046;8.724;2024-03-23T03:53:26;4.57;;;1.73;;
80983;SDS011;73733;53.046;8.724;2024-03-23T03:55:51;4.60;;;1.13;;
80983;SDS011;73733;53.046;8.724;2024-03-23T03:58:17;6.00;;;1.60;;
80983;SDS011;73733;53.046;8.724;2024-03-23T04:00:42;5.43;;;1.63;;
80983;SDS011;73733;53.046;8.724;2024-03-23T04:03:07;3.40;;;1.03;;
80983;SDS011;73733;53.046;8.724;2024-03-23T04:05:32;3.43;;;1.30;;
80983;SDS011;73733;53.046;8.724;2024-03-23T04:07:58;2.23;;;1.10;;
80983;SDS011;73733;53.046;8.724;2024-03-23T04:10:23;3.60;;;1.60;;
80983;SDS011;73733;53.046;8.724;2024-03-23T04:12:49;4.35;;;1.40;;
80983;SDS011;73733;53.046;8.724;2024-03-23T04:15:15;4.95;;;1.45;;
80983;SDS011;73733;53.046;8.724;2024-03-23T04:17:40;2.27;;;1.10;;
80983;SDS011;73733;53.046;8.724;2024-03-23T04:20:07;4.68;;;1.48;;
80983;SDS011;73733;53.046;8.724;2024-03-23T04:22:36;11.85;;;2.30;;
80983;SDS011;73733;53.046;8.724;2024-03-23T04:25:01;4.25;;;1.38;;
80983;SDS011;73733;53.046;8.724;2024-03-23T04:27:31;6.75;;;1.75;;
80983;SDS011;73733;53.046;8.724;2024-03-23T04:29:59;6.68;;;1.65;;
80983;SDS011;73733;53.046;8.724;2024-03-23T04:32:26;6.35;;;1.70;;
80983;SDS011;73733;53.046;8.724;2024-03-23T04:34:51;4.93;;;1.30;;
80983;SDS011;73733;53.046;8.724;2024-03-23T04:37:17;5.15;;;1.52;;
80983;SDS011;73733;53.046;8.724;2024-03-23T04:39:43;6.13;;;1.73;;
80983;SDS011;73733;53.046;8.724;2024-03-23T04:42:08;9.23;;;1.67;;
80983;SDS011;73733;53.046;8.724;2024-03-23T04:44:33;7.20;;;2.20;;
80983;SDS011;73733;53.046;8.724;2024-03-23T04:47:00;6.05;;;1.70;;
80983;SDS011;73733;53.046;8.724;2024-03-23T04:49:25;6.28;;;2.30;;
80983;SDS011;73733;53.046;8.724;2024-03-23T04:51:51;5.00;;;1.40;;
80983;SDS011;73733;53.046;8.724;2024-03-23T04:54:16;3.97;;;1.50;;
80983;SDS011;73733;53.046;8.724;2024-03-23T04:56:41;5.53;;;1.30;;
80983;SDS011;73733;53.046;8.724;2024-03-23T04:59:07;4.80;;;1.52;;
80983;SDS011;73733;53.046;8.724;2024-03-23T05:01:32;6.75;;;1.70;;
80983;SDS011;73733;53.046;8.724;2024-03-23T05:03:58;5.10;;;1.80;;
80983;SDS011;73733;53.046;8.724;2024-03-23T05:06:23;6.18;;;1.77;;
80983;SDS011;73733;53.046;8.724;2024-03-23T05:08:49;4.43;;;1.40;;
80983;SDS011;73733;53.046;8.724;2024-03-23T05:11:14;3.65;;;1.52;;
80983;SDS011;73733;53.046;8.724;2024-03-23T05:13:40;7.70;;;1.63;;
80983;SDS011;73733;53.046;8.724;2024-03-23T05:16:06;6.43;;;1.85;;
80983;SDS011;73733;53.046;8.724;2024-03-23T05:18:31;6.83;;;1.77;;
80983;SDS011;73733;53.046;8.724;2024-03-23T05:20:57;3.08;;;1.75;;
80983;SDS011;73733;53.046;8.724;2024-03-23T05:23:23;4.53;;;0.80;;
80983;SDS011;73733;53.046;8.724;2024-03-23T05:25:48;4.65;;;1.95;;
80983;SDS011;73733;53.046;8.724;2024-03-23T05:28:14;6.63;;;1.33;;
80983;SDS011;73733;53.046;8.724;2024-03-23T05:30:39;3.87;;;1.20;;
80983;SDS011;73733;53.046;8.724;2024-03-23T05:33:05;4.38;;;1.50;;
80983;SDS011;73733;53.046;8.724;2024-03-23T05:35:30;8.10;;;1.95;;
80983;SDS011;73733;53.046;8.724;2024-03-23T05:37:55;11.40;;;1.87;;
80983;SDS011;73733;53.046;8.724;2024-03-23T05:40:21;7.40;;;2.53;;
80983;SDS011;73733;53.046;8.724;2024-03-23T05:42:46;4.73;;;1.00;;
80983;SDS011;73733;53.046;8.724;2024-03-23T05:45:11;4.37;;;1.20;;
80983;SDS011;73733;53.046;8.724;2024-03-23T05:47:37;6.45;;;1.45;;
80983;SDS011;73733;53.046;8.724;2024-03-23T05:50:02;5.93;;;1.43;;
80983;SDS011;73733;53.046;8.724;2024-03-23T05:52:28;5.22;;;1.52;;
80983;SDS011;73733;53.046;8.724;2024-03-23T05:54:54;8.95;;;1.73;;
80983;SDS011;73733;53.046;8.724;2024-03-23T05:57:20;6.28;;;1.35;;
80983;SDS011;73733;53.046;8.724;2024-03-23T05:59:45;3.07;;;1.40;;
80983;SDS011;73733;53.046;8.724;2024-03-23T06:02:11;6.23;;;2.17;;
80983;SDS011;73733;53.046;8.724;2024-03-23T06:04:36;8.32;;;1.60;;
80983;SDS011;73733;53.046;8.724;2024-03-23T06:07:02;5.57;;;1.20;;
80983;SDS011;73733;53.046;8.724;2024-03-23T06:09:27;4.50;;;1.23;;
80983;SDS011;73733;53.046;8.724;2024-03-23T06:11:52;6.40;;;1.40;;
80983;SDS011;73733;53.046;8.724;2024-03-23T06:14:18;5.57;;;1.30;;
80983;SDS011;73733;53.046;8.724;2024-03-23T06:16:43;6.77;;;1.80;;
80983;SDS011;73733;53.046;8.724;2024-03-23T06:19:08;5.27;;;1.20;;
80983;SDS011;73733;53.046;8.724;2024-03-23T06:21:34;4.28;;;1.45;;
80983;SDS011;73733;53.046;8.724;2024-03-23T06:24:00;7.13;;;1.20;;
80983;SDS011;73733;53.046;8.724;2024-03-23T06:26:25;3.83;;;1.15;;
80983;SDS011;73733;53.046;8.724;2024-03-23T06:28:50;7.57;;;2.38;;
80983;SDS011;73733;53.046;8.724;2024-03-23T06:31:16;12.50;;;1.97;;
80983;SDS011;73733;53.046;8.724;2024-03-23T06:33:41;8.73;;;1.67;;
80983;SDS011;73733;53.046;8.724;2024-03-23T06:36:08;7.13;;;1.73;;
80983;SDS011;73733;53.046;8.724;2024-03-23T06:38:34;8.25;;;2.25;;
80983;SDS011;73733;53.046;8.724;2024-03-23T06:41:02;7.80;;;1.90;;
80983;SDS011;73733;53.046;8.724;2024-03-23T06:43:28;7.43;;;1.52;;
80983;SDS011;73733;53.046;8.724;2024-03-23T06:45:53;8.77;;;2.42;;
80983;SDS011;73733;53.046;8.724;2024-03-23T06:48:19;3.63;;;1.30;;
80983;SDS011;73733;53.046;8.724;2024-03-23T06:50:45;3.70;;;1.40;;
80983;SDS011;73733;53.046;8.724;2024-03-23T06:53:11;5.20;;;1.90;;
80983;SDS011;73733;53.046;8.724;2024-03-23T06:55:36;6.90;;;1.77;;
80983;SDS011;73733;53.046;8.724;2024-03-23T06:58:02;6.53;;;2.03;;
80983;SDS011;73733;53.046;8.724;2024-03-23T07:00:28;4.30;;;1.13;;
80983;SDS011;73733;53.046;8.724;2024-03-23T07:02:53;5.17;;;1.00;;
80983;SDS011;73733;53.046;8.724;2024-03-23T07:05:18;6.00;;;1.87;;
80983;SDS011;73733;53.046;8.724;2024-03-23T07:07:43;4.10;;;1.87;;
80983;SDS011;73733;53.046;8.724;2024-03-23T07:10:09;5.70;;;1.70;;
80983;SDS011;73733;53.046;8.724;2024-03-23T07:12:34;7.50;;;2.15;;
80983;SDS011;73733;53.046;8.724;2024-03-23T07:14:59;4.50;;;1.73;;
80983;SDS011;73733;53.046;8.724;2024-03-23T07:17:25;6.30;;;1.73;;
80983;SDS011;73733;53.046;8.724;2024-03-23T07:19:50;6.00;;;1.50;;
80983;SDS011;73733;53.046;8.724;2024-03-23T07:22:15;5.13;;;1.60;;
80983;SDS011;73733;53.046;8.724;2024-03-23T07:24:41;4.07;;;1.60;;
80983;SDS011;73733;53.046;8.724;2024-03-23T07:27:06;8.40;;;1.93;;
80983;SDS011;73733;53.046;8.724;2024-03-23T07:29:34;3.70;;;1.23;;
80983;SDS011;73733;53.046;8.724;2024-03-23T07:32:00;6.32;;;1.67;;
80983;SDS011;73733;53.046;8.724;2024-03-23T07:34:25;7.27;;;1.57;;
80983;SDS011;73733;53.046;8.724;2024-03-23T07:36:50;4.23;;;1.33;;
80983;SDS011;73733;53.046;8.724;2024-03-23T07:39:16;5.33;;;1.20;;
80983;SDS011;73733;53.046;8.724;2024-03-23T07:41:44;6.13;;;1.90;;
80983;SDS011;73733;53.046;8.724;2024-03-23T07:44:10;5.65;;;1.30;;
80983;SDS011;73733;53.046;8.724;2024-03-23T07:46:35;5.87;;;1.77;;
80983;SDS011;73733;53.046;8.724;2024-03-23T07:49:00;4.43;;;1.60;;
80983;SDS011;73733;53.046;8.724;2024-03-23T07:51:26;5.20;;;1.37;;
80983;SDS011;73733;53.046;8.724;2024-03-23T07:53:51;3.70;;;1.10;;
80983;SDS011;73733;53.046;8.724;2024-03-23T07:56:17;3.28;;;1.50;;
80983;SDS011;73733;53.046;8.724;2024-03-23T07:58:44;4.43;;;1.42;;
80983;SDS011;73733;53.046;8.724;2024-03-23T08:01:11;6.20;;;1.20;;
80983;SDS011;73733;53.046;8.724;2024-03-23T08:03:37;5.97;;;1.20;;
80983;SDS011;73733;53.046;8.724;2024-03-23T08:06:06;2.80;;;1.27;;
80983;SDS011;73733;53.046;8.724;2024-03-23T08:08:35;5.68;;;2.15;;
80983;SDS011;73733;53.046;8.724;2024-03-23T08:11:00;5.95;;;1.60;;
80983;SDS011;73733;53.046;8.724;2024-03-23T08:13:26;3.17;;;1.00;;
80983;SDS011;73733;53.046;8.724;2024-03-23T08:15:51;4.72;;;1.20;;
80983;SDS011;73733;53.046;8.724;2024-03-23T08:18:16;5.67;;;1.60;;
80983;SDS011;73733;53.046;8.724;2024-03-23T08:20:41;4.83;;;1.10;;
80983;SDS011;73733;53.046;8.724;2024-03-23T08:23:07;2.47;;;0.90;;
80983;SDS011;73733;53.046;8.724;2024-03-23T08:25:32;5.35;;;1.15;;
80983;SDS011;73733;53.046;8.724;2024-03-23T08:27:58;4.18;;;1.42;;
80983;SDS011;73733;53.046;8.724;2024-03-23T08:30:23;6.65;;;1.33;;
80983;SDS011;73733;53.046;8.724;2024-03-23T08:32:49;5.90;;;1.00;;
80983;SDS011;73733;53.046;8.724;2024-03-23T08:35:14;3.07;;;0.90;;
80983;SDS011;73733;53.046;8.724;2024-03-23T08:37:39;3.17;;;1.23;;
80983;SDS011;73733;53.046;8.724;2024-03-23T08:40:05;4.57;;;1.23;;
80983;SDS011;73733;53.046;8.724;2024-03-23T08:42:31;3.35;;;1.33;;
80983;SDS011;73733;53.046;8.724;2024-03-23T08:44:56;5.25;;;1.60;;
80983;SDS011;73733;53.046;8.724;2024-03-23T08:47:22;3.50;;;1.10;;
80983;SDS011;73733;53.046;8.724;2024-03-23T08:49:47;3.07;;;0.90;;
80983;SDS011;73733;53.046;8.724;2024-03-23T08:52:12;6.00;;;1.40;;
80983;SDS011;73733;53.046;8.724;2024-03-23T08:54:38;3.00;;;1.63;;
80983;SDS011;73733;53.046;8.724;2024-03-23T08:57:03;3.72;;;1.00;;
80983;SDS011;73733;53.046;8.724;2024-03-23T08:59:29;4.47;;;0.98;;
80983;SDS011;73733;53.046;8.724;2024-03-23T09:01:54;6.10;;;1.20;;
80983;SDS011;73733;53.046;8.724;2024-03-23T09:04:19;3.45;;;1.17;;
80983;SDS011;73733;53.046;8.724;2024-03-23T09:06:45;2.07;;;0.77;;
80983;SDS011;73733;53.046;8.724;2024-03-23T09:09:10;3.70;;;1.00;;
80983;SDS011;73733;53.046;8.724;2024-03-23T09:11:35;4.47;;;0.60;;
80983;SDS011;73733;53.046;8.724;2024-03-23T09:14:00;2.37;;;0.80;;
80983;SDS011;73733;53.046;8.724;2024-03-23T09:16:26;2.60;;;0.83;;
80983;SDS011;73733;53.046;8.724;2024-03-23T09:18:51;1.38;;;0.43;;
80983;SDS011;73733;53.046;8.724;2024-03-23T09:21:17;5.10;;;0.82;;
80983;SDS011;73733;53.046;8.724;2024-03-23T09:23:45;2.57;;;0.90;;
80983;SDS011;73733;53.046;8.724;2024-03-23T09:26:10;3.58;;;0.90;;
80983;SDS011;73733;53.046;8.724;2024-03-23T09:28:36;5.67;;;1.43;;
80983;SDS011;73733;53.046;8.724;2024-03-23T09:31:02;2.72;;;0.93;;
80983;SDS011;73733;53.046;8.724;2024-03-23T09:33:28;6.32;;;1.10;;
80983;SDS011;73733;53.046;8.724;2024-03-23T09:35:54;4.68;;;1.35;;
80983;SDS011;73733;53.046;8.724;2024-03-23T09:38:20;3.75;;;1.02;;
80983;SDS011;73733;53.046;8.724;2024-03-23T09:40:45;3.53;;;0.93;;
80983;SDS011;73733;53.046;8.724;2024-03-23T09:43:13;2.33;;;1.00;;
80983;SDS011;73733;53.046;8.724;2024-03-23T09:45:39;2.63;;;0.87;;
80983;SDS011;73733;53.046;8.724;2024-03-23T09:48:08;2.40;;;1.30;;
80983;SDS011;73733;53.046;8.724;2024-03-23T09:50:36;2.30;;;0.82;;
80983;SDS011;73733;53.046;8.724;2024-03-23T09:53:06;1.58;;;0.90;;
80983;SDS011;73733;53.046;8.724;2024-03-23T09:55:31;4.65;;;1.65;;
80983;SDS011;73733;53.046;8.724;2024-03-23T09:57:57;2.07;;;0.90;;
80983;SDS011;73733;53.046;8.724;2024-03-23T10:00:22;2.50;;;1.13;;
80983;SDS011;73733;53.046;8.724;2024-03-23T10:02:48;2.43;;;0.90;;
80983;SDS011;73733;53.046;8.724;2024-03-23T10:05:20;2.23;;;0.73;;
80983;SDS011;73733;53.046;8.724;2024-03-23T10:10:12;2.23;;;0.70;;
80983;SDS011;73733;53.046;8.724;2024-03-23T10:12:39;2.00;;;0.60;;
80983;SDS011;73733;53.046;8.724;2024-03-23T10:15:15;3.63;;;1.00;;
80983;SDS011;73733;53.046;8.724;2024-03-23T10:17:43;1.90;;;0.68;;
80983;SDS011;73733;53.046;8.724;2024-03-23T10:20:09;1.88;;;0.80;;
80983;SDS011;73733;53.046;8.724;2024-03-23T10:22:36;3.65;;;0.90;;
80983;SDS011;73733;53.046;8.724;2024-03-23T10:27:35;4.53;;;1.20;;
80983;SDS011;73733;53.046;8.724;2024-03-23T10:30:10;1.85;;;0.82;;
80983;SDS011;73733;53.046;8.724;2024-03-23T10:32:37;1.67;;;0.70;;
80983;SDS011;73733;53.046;8.724;2024-03-23T10:37:57;2.90;;;1.10;;
80983;SDS011;73733;53.046;8.724;2024-03-23T10:40:22;1.67;;;0.83;;
80983;SDS011;73733;53.046;8.724;2024-03-23T10:42:48;2.63;;;0.70;;
80983;SDS011;73733;53.046;8.724;2024-03-23T10:45:14;1.60;;;0.57;;
80983;SDS011;73733;53.046;8.724;2024-03-23T10:47:39;2.50;;;0.87;;
80983;SDS011;73733;53.046;8.724;2024-03-23T10:50:04;2.27;;;1.00;;
80983;SDS011;73733;53.046;8.724;2024-03-23T10:52:33;1.35;;;0.70;;
80983;SDS011;73733;53.046;8.724;2024-03-23T10:54:58;1.33;;;0.80;;
80983;SDS011;73733;53.046;8.724;2024-03-23T10:59:56;3.88;;;1.00;;
80983;SDS011;73733;53.046;8.724;2024-03-23T11:02:21;3.80;;;1.80;;
80983;SDS011;73733;53.046;8.724;2024-03-23T11:04:47;2.55;;;0.73;;
80983;SDS011;73733;53.046;8.724;2024-03-23T11:09:49;4.22;;;1.35;;
80983;SDS011;73733;53.046;8.724;2024-03-23T11:14:48;2.38;;;0.98;;
80983;SDS011;73733;53.046;8.724;2024-03-23T11:17:20;2.33;;;0.47;;
80983;SDS011;73733;53.046;8.724;2024-03-23T11:19:52;1.88;;;0.63;;
80983;SDS011;73733;53.046;8.724;2024-03-23T11:22:37;1.42;;;0.55;;
80983;SDS011;73733;53.046;8.724;2024-03-23T11:25:15;2.88;;;0.93;;
80983;SDS011;73733;53.046;8.724;2024-03-23T11:27:48;2.17;;;0.55;;
80983;SDS011;73733;53.046;8.724;2024-03-23T11:30:17;1.95;;;0.88;;
80983;SDS011;73733;53.046;8.724;2024-03-23T11:32:44;2.33;;;0.93;;
80983;SDS011;73733;53.046;8.724;2024-03-23T11:35:24;1.50;;;0.50;;
80983;SDS011;73733;53.046;8.724;2024-03-23T11:38:02;1.13;;;0.57;;
80983;SDS011;73733;53.046;8.724;2024-03-23T11:40:36;2.20;;;0.80;;
80983;SDS011;73733;53.046;8.724;2024-03-23T11:43:03;2.20;;;0.88;;
80983;SDS011;73733;53.046;8.724;2024-03-23T11:45:37;3.33;;;1.00;;
80983;SDS011;73733;53.046;8.724;2024-03-23T11:48:10;0.73;;;0.43;;
80983;SDS011;73733;53.046;8.724;2024-03-23T11:50:37;1.77;;;0.68;;
80983;SDS011;73733;53.046;8.724;2024-03-23T11:53:16;1.48;;;0.50;;
80983;SDS011;73733;53.046;8.724;2024-03-23T11:58:09;1.83;;;0.52;;
80983;SDS011;73733;53.046;8.724;2024-03-23T12:00:35;0.98;;;0.52;;
80983;SDS011;73733;53.046;8.724;2024-03-23T12:03:04;2.38;;;0.75;;
80983;SDS011;73733;53.046;8.724;2024-03-23T12:05:29;0.70;;;0.40;;
80983;SDS011;73733;53.046;8.724;2024-03-23T12:07:55;1.85;;;0.30;;
80983;SDS011;73733;53.046;8.724;2024-03-23T12:10:40;0.90;;;0.22;;
80983;SDS011;73733;53.046;8.724;2024-03-23T12:13:05;1.30;;;0.30;;
80983;SDS011;73733;53.046;8.724;2024-03-23T12:15:31;0.77;;;0.30;;
80983;SDS011;73733;53.046;8.724;2024-03-23T12:18:14;0.77;;;0.30;;
80983;SDS011;73733;53.046;8.724;2024-03-23T12:20:39;0.98;;;0.35;;
80983;SDS011;73733;53.046;8.724;2024-03-23T12:23:05;2.45;;;0.45;;
80983;SDS011;73733;53.046;8.724;2024-03-23T12:25:31;3.63;;;0.75;;
80983;SDS011;73733;53.046;8.724;2024-03-23T12:28:00;1.13;;;0.30;;
80983;SDS011;73733;53.046;8.724;2024-03-23T12:30:25;2.20;;;0.45;;
80983;SDS011;73733;53.046;8.724;2024-03-23T12:32:50;1.37;;;0.70;;
80983;SDS011;73733;53.046;8.724;2024-03-23T12:35:16;0.40;;;0.20;;
80983;SDS011;73733;53.046;8.724;2024-03-23T12:37:41;0.63;;;0.17;;
80983;SDS011;73733;53.046;8.724;2024-03-23T12:40:06;0.30;;;0.13;;
80983;SDS011;73733;53.046;8.724;2024-03-23T12:42:32;2.05;;;0.40;;
80983;SDS011;73733;53.046;8.724;2024-03-23T12:44:58;0.20;;;0.10;;
80983;SDS011;73733;53.046;8.724;2024-03-23T12:47:23;0.43;;;0.17;;
80983;SDS011;73733;53.046;8.724;2024-03-23T12:49:48;0.20;;;0.03;;
80983;SDS011;73733;53.046;8.724;2024-03-23T12:52:14;1.38;;;0.22;;
80983;SDS011;73733;53.046;8.724;2024-03-23T12:54:40;0.22;;;0.03;;
80983;SDS011;73733;53.046;8.724;2024-03-23T12:57:05;0.93;;;0.57;;
80983;SDS011;73733;53.046;8.724;2024-03-23T12:59:30;2.13;;;0.20;;
80983;SDS011;73733;53.046;8.724;2024-03-23T13:01:56;0.67;;;0.27;;
80983;SDS011;73733;53.046;8.724;2024-03-23T13:04:21;1.03;;;0.37;;
80983;SDS011;73733;53.046;8.724;2024-03-23T13:06:47;0.32;;;0.13;;
80983;SDS011;73733;53.046;8.724;2024-03-23T13:09:12;0.80;;;0.20;;
80983;SDS011;73733;53.046;8.724;2024-03-23T13:11:37;0.90;;;0.40;;
80983;SDS011;73733;53.046;8.724;2024-03-23T13:14:03;0.10;;;0.10;;
80983;SDS011;73733;53.046;8.724;2024-03-23T13:16:29;0.43;;;0.28;;
80983;SDS011;73733;53.046;8.724;2024-03-23T13:18:54;0.97;;;0.60;;
80983;SDS011;73733;53.046;8.724;2024-03-23T13:21:19;0.93;;;0.43;;
80983;SDS011;73733;53.046;8.724;2024-03-23T13:23:48;0.87;;;0.40;;
80983;SDS011;73733;53.046;8.724;2024-03-23T13:26:15;1.05;;;0.40;;
80983;SDS011;73733;53.046;8.724;2024-03-23T13:28:40;1.43;;;0.43;;
80983;SDS011;73733;53.046;8.724;2024-03-23T13:31:06;2.33;;;0.30;;
80983;SDS011;73733;53.046;8.724;2024-03-23T13:33:31;0.95;;;0.20;;
80983;SDS011;73733;53.046;8.724;2024-03-23T13:35:57;1.45;;;0.47;;
80983;SDS011;73733;53.046;8.724;2024-03-23T13:38:23;1.45;;;0.28;;
80983;SDS011;73733;53.046;8.724;2024-03-23T13:40:50;1.23;;;0.57;;
80983;SDS011;73733;53.046;8.724;2024-03-23T13:45:48;1.33;;;0.20;;
80983;SDS011;73733;53.046;8.724;2024-03-23T13:48:14;1.33;;;0.30;;
80983;SDS011;73733;53.046;8.724;2024-03-23T13:50:40;1.05;;;0.30;;
80983;SDS011;73733;53.046;8.724;2024-03-23T13:53:05;1.67;;;0.50;;
80983;SDS011;73733;53.046;8.724;2024-03-23T13:55:31;0.90;;;0.47;;
80983;SDS011;73733;53.046;8.724;2024-03-23T13:57:56;1.98;;;0.32;;
80983;SDS011;73733;53.046;8.724;2024-03-23T14:00:22;1.52;;;0.40;;
80983;SDS011;73733;53.046;8.724;2024-03-23T14:02:48;0.63;;;0.20;;
80983;SDS011;73733;53.046;8.724;2024-03-23T14:05:13;1.60;;;0.80;;
80983;SDS011;73733;53.046;8.724;2024-03-23T14:07:39;1.43;;;0.50;;
80983;SDS011;73733;53.046;8.724;2024-03-23T14:10:04;1.03;;;0.50;;
80983;SDS011;73733;53.046;8.724;2024-03-23T14:12:31;0.85;;;0.50;;
80983;SDS011;73733;53.046;8.724;2024-03-23T14:14:56;2.33;;;0.40;;
80983;SDS011;73733;53.046;8.724;2024-03-23T14:17:22;2.00;;;0.40;;
80983;SDS011;73733;53.046;8.724;2024-03-23T14:19:47;1.17;;;0.37;;
80983;SDS011;73733;53.046;8.724;2024-03-23T14:22:12;2.30;;;1.20;;
80983;SDS011;73733;53.046;8.724;2024-03-23T14:24:38;0.80;;;0.50;;
80983;SDS011;73733;53.046;8.724;2024-03-23T14:27:03;1.30;;;0.20;;
80983;SDS011;73733;53.046;8.724;2024-03-23T14:29:30;0.65;;;0.20;;
80983;SDS011;73733;53.046;8.724;2024-03-23T14:31:56;0.40;;;0.15;;
80983;SDS011;73733;53.046;8.724;2024-03-23T14:34:21;1.23;;;0.40;;
80983;SDS011;73733;53.046;8.724;2024-03-23T14:36:47;0.83;;;0.50;;
80983;SDS011;73733;53.046;8.724;2024-03-23T14:39:12;1.47;;;0.63;;
80983;SDS011;73733;53.046;8.724;2024-03-23T14:41:38;1.35;;;0.50;;
80983;SDS011;73733;53.046;8.724;2024-03-23T14:44:03;1.20;;;0.30;;
80983;SDS011;73733;53.046;8.724;2024-03-23T14:46:28;1.25;;;0.38;;
80983;SDS011;73733;53.046;8.724;2024-03-23T14:48:54;0.97;;;0.30;;
80983;SDS011;73733;53.046;8.724;2024-03-23T14:51:20;0.17;;;0.10;;
80983;SDS011;73733;53.046;8.724;2024-03-23T14:53:46;1.17;;;0.30;;
80983;SDS011;73733;53.046;8.724;2024-03-23T14:56:13;0.40;;;0.20;;
80983;SDS011;73733;53.046;8.724;2024-03-23T14:58:40;1.15;;;0.40;;
80983;SDS011;73733;53.046;8.724;2024-03-23T15:01:06;1.07;;;0.37;;
80983;SDS011;73733;53.046;8.724;2024-03-23T15:03:36;1.92;;;0.68;;
80983;SDS011;73733;53.046;8.724;2024-03-23T15:06:03;0.80;;;0.45;;
80983;SDS011;73733;53.046;8.724;2024-03-23T15:08:29;0.52;;;0.30;;
80983;SDS011;73733;53.046;8.724;2024-03-23T15:10:54;1.17;;;0.30;;
80983;SDS011;73733;53.046;8.724;2024-03-23T15:13:20;0.80;;;0.20;;
80983;SDS011;73733;53.046;8.724;2024-03-23T15:15:47;0.22;;;0.22;;
80983;SDS011;73733;53.046;8.724;2024-03-23T15:18:17;0.80;;;0.50;;
80983;SDS011;73733;53.046;8.724;2024-03-23T15:20:57;0.93;;;0.50;;
80983;SDS011;73733;53.046;8.724;2024-03-23T15:23:27;1.15;;;0.25;;
80983;SDS011;73733;53.046;8.724;2024-03-23T15:25:56;1.55;;;0.50;;
80983;SDS011;73733;53.046;8.724;2024-03-23T15:28:25;1.45;;;0.68;;
80983;SDS011;73733;53.046;8.724;2024-03-23T15:30:53;2.65;;;0.80;;
80983;SDS011;73733;53.046;8.724;2024-03-23T15:33:18;1.63;;;0.50;;
80983;SDS011;73733;53.046;8.724;2024-03-23T15:35:43;1.20;;;0.60;;
80983;SDS011;73733;53.046;8.724;2024-03-23T15:38:09;1.40;;;0.53;;
80983;SDS011;73733;53.046;8.724;2024-03-23T15:40:34;3.80;;;0.88;;
80983;SDS011;73733;53.046;8.724;2024-03-23T15:43:00;1.83;;;0.77;;
80983;SDS011;73733;53.046;8.724;2024-03-23T15:45:25;0.68;;;0.22;;
80983;SDS011;73733;53.046;8.724;2024-03-23T15:47:50;1.03;;;0.40;;
80983;SDS011;73733;53.046;8.724;2024-03-23T15:50:17;0.80;;;0.50;;
80983;SDS011;73733;53.046;8.724;2024-03-23T15:52:42;0.50;;;0.20;;
80983;SDS011;73733;53.046;8.724;2024-03-23T15:55:08;1.63;;;0.30;;
80983;SDS011;73733;53.046;8.724;2024-03-23T16:00:03;0.37;;;0.30;;
80983;SDS011;73733;53.046;8.724;2024-03-23T16:02:29;0.82;;;0.40;;